createdAt,value
2023-02-06T00:01:08.087Z,3.47
2023-02-06T00:03:34.823Z,3.80
2023-02-06T00:06:20.055Z,3.10
2023-02-06T00:09:09.407Z,2.73
2023-02-06T00:11:36.712Z,2.50
2023-02-06T00:14:03.806Z,2.43
2023-02-06T00:16:32.526Z,3.03
2023-02-06T00:18:59.872Z,2.83
2023-02-06T00:21:28.695Z,3.47
2023-02-06T00:23:58.207Z,3.70
2023-02-06T00:26:25.994Z,3.50
2023-02-06T00:28:53.218Z,3.60
2023-02-06T00:31:20.086Z,3.67
2023-02-06T00:33:47.430Z,3.00
2023-02-06T00:36:14.253Z,3.53
2023-02-06T00:38:40.992Z,2.97
2023-02-06T00:41:07.800Z,1.80
2023-02-06T00:43:34.712Z,2.47
2023-02-06T00:46:01.752Z,2.20
2023-02-06T00:48:28.495Z,1.77
2023-02-06T00:50:56.831Z,1.93
2023-02-06T00:53:23.733Z,2.10
2023-02-06T00:55:50.681Z,1.53
2023-02-06T00:58:17.493Z,2.23
2023-02-06T01:00:44.283Z,2.33
2023-02-06T01:03:11.363Z,2.00
2023-02-06T01:05:38.537Z,1.90
2023-02-06T01:10:51.496Z,2.20
2023-02-06T01:13:18.226Z,2.07
2023-02-06T01:15:45.331Z,1.30
2023-02-06T01:18:12.534Z,1.80
2023-02-06T01:20:40.839Z,1.90
2023-02-06T01:23:07.580Z,2.47
2023-02-06T01:25:34.768Z,1.70
2023-02-06T01:28:01.671Z,1.67
2023-02-06T01:30:28.649Z,2.77
2023-02-06T01:32:56.415Z,1.80
2023-02-06T01:35:23.198Z,1.80
2023-02-06T01:37:49.910Z,1.80
2023-02-06T01:40:17.189Z,1.50
2023-02-06T01:42:44.388Z,1.13
2023-02-06T01:45:26.532Z,1.77
2023-02-06T01:47:59.420Z,1.70
2023-02-06T01:50:26.546Z,1.10
2023-02-06T01:52:53.319Z,1.10
2023-02-06T01:55:20.249Z,1.37
2023-02-06T01:57:47.090Z,1.57
2023-02-06T02:00:14.090Z,1.13
2023-02-06T02:02:45.103Z,1.33
2023-02-06T02:05:12.845Z,1.67
2023-02-06T02:07:47.088Z,1.87
2023-02-06T02:10:13.927Z,1.63
2023-02-06T02:12:40.614Z,1.47
2023-02-06T02:15:07.850Z,1.63
2023-02-06T02:18:02.592Z,1.63
2023-02-06T02:21:09.964Z,1.33
2023-02-06T02:23:45.476Z,1.23
2023-02-06T02:26:46.390Z,1.50
2023-02-06T02:29:37.372Z,1.77
2023-02-06T02:32:34.500Z,1.40
2023-02-06T02:35:42.066Z,1.27
2023-02-06T02:38:33.411Z,1.40
2023-02-06T02:41:27.767Z,1.30
2023-02-06T02:44:26.059Z,0.93
2023-02-06T02:46:57.960Z,1.20
2023-02-06T02:49:28.116Z,1.00
2023-02-06T02:52:14.084Z,1.90
2023-02-06T02:54:40.872Z,1.60
2023-02-06T02:57:17.846Z,1.60
2023-02-06T02:59:47.747Z,1.83
2023-02-06T03:02:25.934Z,1.20
2023-02-06T03:05:10.520Z,1.37
2023-02-06T03:07:59.861Z,1.43
2023-02-06T03:10:59.075Z,1.67
2023-02-06T03:13:33.611Z,1.20
2023-02-06T03:16:00.470Z,1.60
2023-02-06T03:18:43.091Z,1.43
2023-02-06T03:21:15.413Z,1.90
2023-02-06T03:23:45.607Z,1.33
2023-02-06T03:26:19.536Z,1.40
2023-02-06T03:28:51.606Z,1.63
2023-02-06T03:31:33.281Z,1.43
2023-02-06T03:34:27.700Z,1.57
2023-02-06T03:36:54.987Z,1.07
2023-02-06T03:39:23.097Z,1.30
2023-02-06T03:41:52.270Z,1.57
2023-02-06T03:44:24.564Z,1.23
2023-02-06T03:46:54.485Z,1.40
2023-02-06T03:49:24.706Z,1.60
2023-02-06T03:54:54.836Z,1.10
2023-02-06T03:57:24.153Z,1.07
2023-02-06T03:59:51.644Z,1.10
2023-02-06T04:02:20.406Z,0.97
2023-02-06T04:04:47.959Z,1.10
2023-02-06T04:07:25.469Z,0.90
2023-02-06T04:09:52.806Z,0.70
2023-02-06T04:12:20.342Z,0.43
2023-02-06T04:14:47.289Z,0.70
2023-02-06T04:17:20.836Z,0.50
2023-02-06T04:19:58.455Z,1.17
2023-02-06T04:22:25.189Z,0.83
2023-02-06T04:24:51.969Z,0.90
2023-02-06T04:27:18.808Z,0.70
2023-02-06T04:29:45.549Z,0.63
2023-02-06T04:32:12.343Z,0.80
2023-02-06T04:34:39.324Z,0.63
2023-02-06T04:37:06.408Z,0.60
2023-02-06T04:39:34.065Z,0.90
2023-02-06T04:42:00.844Z,0.90
2023-02-06T04:44:27.664Z,0.80
2023-02-06T04:46:54.420Z,0.73
2023-02-06T04:49:21.197Z,0.90
2023-02-06T04:51:47.911Z,0.70
2023-02-06T04:54:17.249Z,0.70
2023-02-06T04:56:45.083Z,0.90
2023-02-06T04:59:12.436Z,0.67
2023-02-06T05:01:57.717Z,1.07
2023-02-06T05:04:24.482Z,0.87
2023-02-06T05:06:51.249Z,1.07
2023-02-06T05:09:18.046Z,0.77
2023-02-06T05:14:28.702Z,0.73
2023-02-06T05:16:55.503Z,0.70
2023-02-06T05:19:22.315Z,0.73
2023-02-06T05:21:49.167Z,0.90
2023-02-06T05:24:15.948Z,0.70
2023-02-06T05:26:42.679Z,0.70
2023-02-06T05:29:09.421Z,0.70
2023-02-06T05:31:36.472Z,0.73
2023-02-06T05:34:03.299Z,1.00
2023-02-06T05:36:30.028Z,0.80
2023-02-06T05:38:56.849Z,0.90
2023-02-06T05:41:23.623Z,1.03
2023-02-06T05:43:50.386Z,1.00
2023-02-06T05:46:17.175Z,0.70
2023-02-06T05:48:43.906Z,0.87
2023-02-06T05:51:10.671Z,1.03
2023-02-06T05:53:37.396Z,1.00
2023-02-06T05:56:05.226Z,0.90
2023-02-06T05:58:32.043Z,1.10
2023-02-06T06:00:58.925Z,0.70
2023-02-06T06:03:25.763Z,0.93
2023-02-06T06:05:54.294Z,0.90
2023-02-06T06:08:21.755Z,1.03
2023-02-06T06:10:52.509Z,0.83
2023-02-06T06:13:19.457Z,1.10
2023-02-06T06:15:49.582Z,0.60
2023-02-06T06:18:16.372Z,1.10
2023-02-06T06:20:43.299Z,1.30
2023-02-06T06:23:10.073Z,1.73
2023-02-06T06:25:37.146Z,0.90
2023-02-06T06:28:04.242Z,0.70
2023-02-06T06:30:31.081Z,0.80
2023-02-06T06:32:58.027Z,1.00
2023-02-06T06:35:26.103Z,0.50
2023-02-06T06:37:52.872Z,0.70
2023-02-06T06:40:19.860Z,0.60
2023-02-06T06:42:46.663Z,0.70
2023-02-06T06:45:13.440Z,0.93
2023-02-06T06:47:40.283Z,1.57
2023-02-06T06:50:07.607Z,1.43
2023-02-06T06:52:34.628Z,0.87
2023-02-06T06:55:01.440Z,1.00
2023-02-06T06:57:47.433Z,1.20
2023-02-06T07:00:15.324Z,1.00
2023-02-06T07:02:42.810Z,1.37
2023-02-06T07:05:09.778Z,1.83
2023-02-06T07:07:37.433Z,1.20
2023-02-06T07:10:04.853Z,1.67
2023-02-06T07:12:31.648Z,1.83
2023-02-06T07:14:58.566Z,1.20
2023-02-06T07:17:44.141Z,1.87
2023-02-06T07:20:11.323Z,1.27
2023-02-06T07:22:38.286Z,1.17
2023-02-06T07:25:06.097Z,1.10
2023-02-06T07:27:51.975Z,1.60
2023-02-06T07:30:19.155Z,2.00
2023-02-06T07:32:45.914Z,2.17
2023-02-06T07:35:15.271Z,2.50
2023-02-06T07:37:42.002Z,2.10
2023-02-06T07:40:09.280Z,2.03
2023-02-06T07:42:36.053Z,2.00
2023-02-06T07:45:14.496Z,1.77
2023-02-06T07:47:42.559Z,2.77
2023-02-06T07:50:09.911Z,2.50
2023-02-06T07:52:36.685Z,2.47
2023-02-06T07:55:04.658Z,3.03
2023-02-06T07:57:31.696Z,2.93
2023-02-06T07:59:59.640Z,2.97
2023-02-06T08:02:26.395Z,2.40
2023-02-06T08:04:53.090Z,2.23
2023-02-06T08:07:19.990Z,3.63
2023-02-06T08:09:46.737Z,1.70
2023-02-06T08:12:32.463Z,2.60
2023-02-06T08:14:59.207Z,2.53
2023-02-06T08:20:11.240Z,1.67
2023-02-06T08:22:38.597Z,2.70
2023-02-06T08:25:06.024Z,5.43
2023-02-06T08:27:33.328Z,4.13
2023-02-06T08:30:00.645Z,2.77
2023-02-06T08:32:32.944Z,2.77
2023-02-06T08:34:59.781Z,2.13
2023-02-06T08:37:44.892Z,2.73
2023-02-06T08:40:12.163Z,3.10
2023-02-06T08:42:38.854Z,3.60
2023-02-06T08:47:51.188Z,3.93
2023-02-06T08:50:17.951Z,3.17
2023-02-06T08:52:44.777Z,2.33
2023-02-06T08:55:11.492Z,3.10
2023-02-06T08:57:38.245Z,2.73
2023-02-06T09:00:05.795Z,3.63
2023-02-06T09:02:55.155Z,2.73
2023-02-06T09:05:22.839Z,2.90
2023-02-06T09:07:49.659Z,3.47
2023-02-06T09:10:26.974Z,3.57
2023-02-06T09:12:57.748Z,3.57
2023-02-06T09:15:24.692Z,3.10
2023-02-06T09:17:51.414Z,3.57
2023-02-06T09:20:18.378Z,2.93
2023-02-06T09:22:45.208Z,3.63
2023-02-06T09:25:12.159Z,3.47
2023-02-06T09:27:38.985Z,2.87
2023-02-06T09:30:06.137Z,2.03
2023-02-06T09:32:32.993Z,2.43
2023-02-06T09:34:59.732Z,2.37
2023-02-06T09:37:26.471Z,2.10
2023-02-06T09:39:53.220Z,2.20
2023-02-06T09:42:28.747Z,2.30
2023-02-06T09:45:07.476Z,2.33
2023-02-06T09:47:38.231Z,1.80
2023-02-06T09:50:12.940Z,1.83
2023-02-06T09:53:09.029Z,1.40
2023-02-06T09:55:45.190Z,2.00
2023-02-06T09:58:36.209Z,2.10
2023-02-06T10:01:38.763Z,2.70
2023-02-06T10:04:14.643Z,1.77
2023-02-06T10:06:56.760Z,2.10
2023-02-06T10:09:37.221Z,1.70
2023-02-06T10:12:17.300Z,1.47
2023-02-06T10:15:04.708Z,1.27
2023-02-06T10:17:36.566Z,1.30
2023-02-06T10:20:18.253Z,1.23
2023-02-06T10:23:10.044Z,1.63
2023-02-06T10:25:42.101Z,1.20
2023-02-06T10:28:30.838Z,1.40
2023-02-06T10:31:09.597Z,1.40
2023-02-06T10:33:50.704Z,1.30
2023-02-06T10:36:35.954Z,0.93
2023-02-06T10:39:20.971Z,0.87
2023-02-06T10:41:55.817Z,1.17
2023-02-06T10:44:51.734Z,0.90
2023-02-06T10:47:35.125Z,1.00
2023-02-06T10:50:18.463Z,1.10
2023-02-06T10:55:46.721Z,0.87
2023-02-06T10:58:22.098Z,0.83
2023-02-06T11:00:51.289Z,0.77
2023-02-06T11:03:41.004Z,0.73
2023-02-06T11:06:13.794Z,0.80
2023-02-06T11:08:44.688Z,0.63
2023-02-06T11:11:22.618Z,1.20
2023-02-06T11:13:54.260Z,0.70
2023-02-06T11:16:25.796Z,0.80
2023-02-06T11:18:55.008Z,0.60
2023-02-06T11:21:46.591Z,0.80
2023-02-06T11:24:15.928Z,0.80
2023-02-06T11:26:46.380Z,1.00
2023-02-06T11:29:37.034Z,0.90
2023-02-06T11:32:24.326Z,0.93
2023-02-06T11:34:56.069Z,0.90
2023-02-06T11:37:52.480Z,1.00
2023-02-06T11:40:19.269Z,0.90
2023-02-06T11:43:11.159Z,0.70
2023-02-06T11:45:38.296Z,1.13
2023-02-06T11:48:07.748Z,0.97
2023-02-06T11:50:37.321Z,0.70
2023-02-06T11:53:16.833Z,1.07
2023-02-06T11:55:45.643Z,0.83
2023-02-06T11:58:12.307Z,0.93
2023-02-06T12:00:56.951Z,0.90
2023-02-06T12:03:37.145Z,1.03
2023-02-06T12:06:12.941Z,1.60
2023-02-06T12:08:50.533Z,1.70
2023-02-06T12:11:39.486Z,1.07
2023-02-06T12:14:33.323Z,1.47
2023-02-06T12:17:03.602Z,1.50
2023-02-06T12:19:46.490Z,1.27
2023-02-06T12:22:23.716Z,1.40
2023-02-06T12:24:54.802Z,1.57
2023-02-06T12:27:26.949Z,1.60
2023-02-06T12:30:13.941Z,1.17
2023-02-06T12:32:50.780Z,1.20
2023-02-06T12:35:34.028Z,1.20
2023-02-06T12:38:24.780Z,1.10
2023-02-06T12:41:21.674Z,1.50
2023-02-06T12:43:56.238Z,1.17
2023-02-06T12:46:25.920Z,0.90
2023-02-06T12:49:22.368Z,1.77
2023-02-06T12:52:04.789Z,1.00
2023-02-06T12:54:47.081Z,0.63
2023-02-06T12:57:19.885Z,0.80
2023-02-06T13:00:15.240Z,1.30
2023-02-06T13:02:45.871Z,1.13
2023-02-06T13:05:38.709Z,1.33
2023-02-06T13:08:12.990Z,0.97
2023-02-06T13:10:40.520Z,1.00
2023-02-06T13:13:24.886Z,1.03
2023-02-06T13:15:55.498Z,0.80
2023-02-06T13:18:40.832Z,0.87
2023-02-06T13:21:29.065Z,1.17
2023-02-06T13:24:16.796Z,0.87
2023-02-06T13:26:51.600Z,1.08
2023-02-06T13:29:44.624Z,1.20
2023-02-06T13:32:15.168Z,1.13
2023-02-06T13:34:51.672Z,1.17
2023-02-06T13:37:48.292Z,1.53
2023-02-06T13:40:18.105Z,0.90
2023-02-06T13:43:14.008Z,1.27
2023-02-06T13:46:00.970Z,1.10
2023-02-06T13:48:57.072Z,1.13
2023-02-06T13:52:20.274Z,0.83
2023-02-06T13:55:01.238Z,1.48
2023-02-06T13:58:05.254Z,1.60
2023-02-06T14:00:38.327Z,1.00
2023-02-06T14:03:19.302Z,2.00
2023-02-06T14:06:09.946Z,2.10
2023-02-06T14:08:39.363Z,1.30
2023-02-06T14:11:16.404Z,1.63
2023-02-06T14:14:04.508Z,1.30
2023-02-06T14:16:59.936Z,1.23
2023-02-06T14:19:46.788Z,1.20
2023-02-06T14:22:43.656Z,1.40
2023-02-06T14:25:36.881Z,0.90
2023-02-06T14:28:22.302Z,1.03
2023-02-06T14:31:15.153Z,1.27
2023-02-06T14:34:03.743Z,1.80
2023-02-06T14:36:30.441Z,1.70
2023-02-06T14:39:21.976Z,1.08
2023-02-06T14:41:48.766Z,1.33
2023-02-06T14:44:21.422Z,1.53
2023-02-06T14:46:48.674Z,2.10
2023-02-06T14:49:26.903Z,1.70
2023-02-06T14:51:53.878Z,1.60
2023-02-06T14:54:29.180Z,1.70
2023-02-06T14:57:27.051Z,1.73
2023-02-06T14:59:56.800Z,1.30
2023-02-06T15:02:28.110Z,2.00
2023-02-06T15:04:55.940Z,1.70
2023-02-06T15:07:27.474Z,1.90
2023-02-06T15:10:06.150Z,1.70
2023-02-06T15:12:34.570Z,1.85
2023-02-06T15:15:23.841Z,1.15
2023-02-06T15:17:59.647Z,1.50
2023-02-06T15:20:30.086Z,1.57
2023-02-06T15:23:11.692Z,1.60
2023-02-06T15:26:02.613Z,0.83
2023-02-06T15:28:32.664Z,1.13
2023-02-06T15:31:01.521Z,1.20
2023-02-06T15:33:31.469Z,1.30
2023-02-06T15:36:01.000Z,0.90
2023-02-06T15:38:31.164Z,1.00
2023-02-06T15:41:05.594Z,1.17
2023-02-06T15:43:33.917Z,1.98
2023-02-06T15:46:03.130Z,1.10
2023-02-06T15:48:59.344Z,1.40
2023-02-06T15:51:40.726Z,1.50
2023-02-06T15:54:18.629Z,1.77
2023-02-06T15:56:51.055Z,1.47
2023-02-06T15:59:39.599Z,1.30
2023-02-06T16:02:08.028Z,1.10
2023-02-06T16:04:40.500Z,1.13
2023-02-06T16:07:35.043Z,2.00
2023-02-06T16:10:20.356Z,1.17
2023-02-06T16:12:47.568Z,1.27
2023-02-06T16:15:35.056Z,1.20
2023-02-06T16:18:19.508Z,3.10
2023-02-06T16:20:46.791Z,1.57
2023-02-06T16:23:28.845Z,1.93
2023-02-06T16:26:07.504Z,1.27
2023-02-06T16:28:45.896Z,1.40
2023-02-06T16:31:14.931Z,2.30
2023-02-06T16:33:47.904Z,1.70
2023-02-06T16:36:16.992Z,2.33
2023-02-06T16:38:48.441Z,1.83
2023-02-06T16:41:40.679Z,1.80
2023-02-06T16:44:12.815Z,1.63
2023-02-06T16:46:39.692Z,1.60
2023-02-06T16:49:11.487Z,1.50
2023-02-06T16:51:40.161Z,1.63
2023-02-06T16:54:08.711Z,2.03
2023-02-06T16:56:38.099Z,2.30
2023-02-06T16:59:04.844Z,1.67
2023-02-06T17:01:32.397Z,1.23
2023-02-06T17:03:59.334Z,1.90
2023-02-06T17:06:29.286Z,2.53
2023-02-06T17:09:02.039Z,2.00
2023-02-06T17:11:29.719Z,2.57
2023-02-06T17:13:56.720Z,1.90
2023-02-06T17:16:25.610Z,1.60
2023-02-06T17:18:53.272Z,2.70
2023-02-06T17:21:22.674Z,2.87
2023-02-06T17:23:50.802Z,2.97
2023-02-06T17:26:22.838Z,3.53
2023-02-06T17:28:50.099Z,2.70
2023-02-06T17:31:18.825Z,2.50
2023-02-06T17:33:46.024Z,2.50
2023-02-06T17:36:30.019Z,2.83
2023-02-06T17:38:58.991Z,3.53
2023-02-06T17:41:30.717Z,4.30
2023-02-06T17:43:57.493Z,8.40
2023-02-06T17:46:24.318Z,4.70
2023-02-06T17:49:09.942Z,3.43
2023-02-06T17:51:38.795Z,3.40
2023-02-06T17:54:06.555Z,3.47
2023-02-06T17:56:35.070Z,3.33
2023-02-06T17:59:02.233Z,3.10
2023-02-06T18:01:29.361Z,2.57
2023-02-06T18:03:56.380Z,3.23
2023-02-06T18:06:41.775Z,2.30
2023-02-06T18:09:08.574Z,2.80
2023-02-06T18:11:35.811Z,2.47
2023-02-06T18:14:02.691Z,2.47
2023-02-06T18:16:30.787Z,3.40
2023-02-06T18:18:58.099Z,3.30
2023-02-06T18:21:25.381Z,2.90
2023-02-06T18:24:10.665Z,2.33
2023-02-06T18:26:37.464Z,2.57
2023-02-06T18:29:05.490Z,2.50
2023-02-06T18:31:35.056Z,2.53
2023-02-06T18:34:03.949Z,2.30
2023-02-06T18:36:30.973Z,2.77
2023-02-06T18:38:57.807Z,3.63
2023-02-06T18:41:43.406Z,2.40
2023-02-06T18:44:30.674Z,2.10
2023-02-06T18:46:57.470Z,2.70
2023-02-06T18:49:24.436Z,2.40
2023-02-06T18:52:10.115Z,2.80
2023-02-06T18:54:39.004Z,2.13
2023-02-06T18:57:05.786Z,3.03
2023-02-06T18:59:32.617Z,1.97
2023-02-06T19:01:59.415Z,2.83
2023-02-06T19:04:44.950Z,2.00
2023-02-06T19:07:11.864Z,2.60
2023-02-06T19:09:38.753Z,3.57
2023-02-06T19:12:05.799Z,5.57
2023-02-06T19:14:32.596Z,8.50
2023-02-06T19:16:59.370Z,6.83
2023-02-06T19:19:26.175Z,5.03
2023-02-06T19:21:53.058Z,4.13
2023-02-06T19:24:19.850Z,3.60
2023-02-06T19:26:46.966Z,3.20
2023-02-06T19:29:16.822Z,3.13
2023-02-06T19:31:44.358Z,3.27
2023-02-06T19:34:11.417Z,2.77
2023-02-06T19:36:38.212Z,2.47
2023-02-06T19:39:09.314Z,2.63
2023-02-06T19:41:36.423Z,2.57
2023-02-06T19:44:25.060Z,2.40
2023-02-06T19:47:10.643Z,2.87
2023-02-06T19:49:37.641Z,2.77
2023-02-06T19:52:04.515Z,2.47
2023-02-06T19:54:31.299Z,2.23
2023-02-06T19:56:58.344Z,2.60
2023-02-06T19:59:27.610Z,3.40
2023-02-06T20:01:57.048Z,2.37
2023-02-06T20:04:51.360Z,3.37
2023-02-06T20:07:18.113Z,2.63
2023-02-06T20:09:44.908Z,2.83
2023-02-06T20:12:12.609Z,3.43
2023-02-06T20:14:39.582Z,2.60
2023-02-06T20:17:06.375Z,2.97
2023-02-06T20:19:33.522Z,2.60
2023-02-06T20:22:00.899Z,2.93
2023-02-06T20:24:30.465Z,2.70
2023-02-06T20:27:00.861Z,2.30
2023-02-06T20:29:33.508Z,2.60
2023-02-06T20:32:01.197Z,3.60
2023-02-06T20:34:28.662Z,3.13
2023-02-06T20:36:56.330Z,4.70
2023-02-06T20:39:24.227Z,3.40
2023-02-06T20:41:51.421Z,2.40
2023-02-06T20:44:19.237Z,2.30
2023-02-06T20:46:46.744Z,2.03
2023-02-06T20:49:22.465Z,2.27
2023-02-06T20:51:49.987Z,2.10
2023-02-06T20:54:35.977Z,2.50
2023-02-06T20:57:02.779Z,2.40
2023-02-06T20:59:29.598Z,1.73
2023-02-06T21:01:56.699Z,2.37
2023-02-06T21:04:23.423Z,1.60
2023-02-06T21:06:50.317Z,2.20
2023-02-06T21:09:18.105Z,2.30
2023-02-06T21:11:48.936Z,1.93
2023-02-06T21:14:16.887Z,2.07
2023-02-06T21:16:44.354Z,1.70
2023-02-06T21:19:30.267Z,2.67
2023-02-06T21:21:57.160Z,1.80
2023-02-06T21:24:23.881Z,2.40
2023-02-06T21:26:50.691Z,1.33
2023-02-06T21:29:17.549Z,1.90
2023-02-06T21:31:46.204Z,1.77
2023-02-06T21:34:21.252Z,2.43
2023-02-06T21:36:48.715Z,3.73
2023-02-06T21:39:20.629Z,2.30
2023-02-06T21:41:51.659Z,1.97
2023-02-06T21:44:18.658Z,1.83
2023-02-06T21:46:45.578Z,1.63
2023-02-06T21:49:31.156Z,2.47
2023-02-06T21:54:43.089Z,1.90
2023-02-06T21:57:09.796Z,3.17
2023-02-06T21:59:38.007Z,1.53
2023-02-06T22:02:23.577Z,2.13
2023-02-06T22:04:50.347Z,1.80
2023-02-06T22:07:17.476Z,1.73
2023-02-06T22:09:44.376Z,1.87
2023-02-06T22:12:11.129Z,2.03
2023-02-06T22:14:37.856Z,1.90
2023-02-06T22:17:04.753Z,1.67
2023-02-06T22:19:31.555Z,2.57
2023-02-06T22:21:58.355Z,1.40
2023-02-06T22:24:25.146Z,2.53
2023-02-06T22:26:51.887Z,2.10
2023-02-06T22:29:18.909Z,1.53
2023-02-06T22:31:45.819Z,1.50
2023-02-06T22:34:16.528Z,1.57
2023-02-06T22:36:44.702Z,1.77
2023-02-06T22:39:12.789Z,1.57
2023-02-06T22:41:44.318Z,1.40
2023-02-06T22:44:12.599Z,1.50
2023-02-06T22:46:40.345Z,1.60
2023-02-06T22:49:08.820Z,2.20
2023-02-06T22:51:36.912Z,1.60
2023-02-06T22:54:04.429Z,2.03
2023-02-06T22:59:24.526Z,1.73
2023-02-06T23:01:57.965Z,1.50
2023-02-06T23:04:28.404Z,1.20
2023-02-06T23:06:55.589Z,1.33
2023-02-06T23:09:28.167Z,1.30
2023-02-06T23:11:55.915Z,1.03
2023-02-06T23:14:22.672Z,1.77
2023-02-06T23:16:49.894Z,1.37
2023-02-06T23:19:17.958Z,1.73
2023-02-06T23:21:47.405Z,1.40
2023-02-06T23:24:15.562Z,1.50
2023-02-06T23:26:43.722Z,1.40
2023-02-06T23:29:15.784Z,1.30
2023-02-06T23:31:43.622Z,1.50
2023-02-06T23:34:10.844Z,1.33
2023-02-06T23:36:37.662Z,1.43
2023-02-06T23:39:05.261Z,1.83
2023-02-06T23:41:32.732Z,2.43
2023-02-06T23:44:05.697Z,1.60
2023-02-06T23:46:35.158Z,1.23
2023-02-06T23:49:02.159Z,1.57
2023-02-06T23:51:29.238Z,1.83
2023-02-06T23:53:56.132Z,1.83
2023-02-06T23:56:25.627Z,1.07
